Time;durP1;ratioP1;P1;durP2;ratioP2;P2;SDS_P1;SDS_P2;PMS_P1;PMS_P2;Temp;Humidity;BMP_temperature;BMP_pressure;BME280_temperature;BME280_humidity;BME280_pressure;Samples;Min_cycle;Max_cycle;Signal;HPM_P1;HPM_P2
2022/05/09 00:00:08;;;;;;;12.32;4.30;;;;;;;10.00;67.88;102722.00;5029311;28;20080;-81
2022/05/09 00:02:34;;;;;;;14.73;4.20;;;;;;;9.89;66.59;102725.34;5023686;28;20041;-81
2022/05/09 00:04:59;;;;;;;13.88;4.15;;;;;;;9.79;67.54;102728.72;5035327;28;20056;-81
2022/05/09 00:07:25;;;;;;;12.75;3.97;;;;;;;9.76;67.98;102720.03;5026869;28;20052;-80
2022/05/09 00:09:50;;;;;;;13.90;4.67;;;;;;;9.74;68.56;102727.81;5030097;28;20550;-80
2022/05/09 00:12:15;;;;;;;11.17;3.97;;;;;;;9.65;68.31;102719.94;5029958;28;20371;-80
2022/05/09 00:14:40;;;;;;;17.52;3.97;;;;;;;9.62;68.67;102716.47;5029452;28;20741;-80
2022/05/09 00:17:06;;;;;;;12.00;4.13;;;;;;;9.63;69.24;102713.00;5029150;28;20040;-80
2022/05/09 00:19:31;;;;;;;12.73;4.20;;;;;;;9.59;68.60;102709.53;5035846;28;20279;-80
2022/05/09 00:21:57;;;;;;;16.38;4.32;;;;;;;9.56;69.08;102706.00;5026250;28;20039;-80
2022/05/09 00:24:23;;;;;;;15.45;3.80;;;;;;;9.54;68.40;102713.78;5019936;28;20043;-80
2022/05/09 00:26:51;;;;;;;11.15;3.92;;;;;;;9.48;68.98;102711.13;5029549;28;20423;-80
2022/05/09 00:29:18;;;;;;;14.27;4.13;;;;;;;9.43;69.54;102711.06;5027176;28;20041;-80
2022/05/09 00:31:45;;;;;;;13.07;4.00;;;;;;;9.37;69.67;102712.72;5026145;28;20348;-80
2022/05/09 00:34:12;;;;;;;11.35;3.95;;;;;;;9.33;70.51;102708.38;5030448;28;20036;-80
2022/05/09 00:36:38;;;;;;;10.80;3.97;;;;;;;9.31;69.64;102712.66;5029171;28;20029;-81
2022/05/09 00:39:04;;;;;;;17.08;4.40;;;;;;;9.32;69.89;102706.63;5023522;28;20072;-80
2022/05/09 00:41:34;;;;;;;12.40;4.43;;;;;;;9.35;70.71;102704.94;5029525;28;20095;-80
2022/05/09 00:44:04;;;;;;;17.48;4.00;;;;;;;9.26;69.76;102702.25;5025970;28;20036;-81
2022/05/09 00:46:29;;;;;;;13.02;4.40;;;;;;;9.31;70.59;102704.91;5026956;28;20072;-80
2022/05/09 00:49:04;;;;;;;14.38;4.50;;;;;;;9.30;70.81;102705.75;5035447;28;20072;-81
2022/05/09 00:51:31;;;;;;;16.55;4.63;;;;;;;9.27;70.55;102706.59;5030255;28;20029;-80
2022/05/09 00:54:01;;;;;;;14.73;4.13;;;;;;;9.24;70.84;102709.13;5027660;28;20060;-80
2022/05/09 00:56:35;;;;;;;13.32;4.13;;;;;;;9.20;70.58;102702.19;5027061;28;20100;-80
2022/05/09 00:59:06;;;;;;;11.85;3.85;;;;;;;9.16;70.44;102700.41;5027860;28;20031;-80
2022/05/09 01:01:32;;;;;;;10.57;3.95;;;;;;;9.08;71.17;102700.31;5028027;28;20044;-80
2022/05/09 01:04:06;;;;;;;13.63;4.65;;;;;;;9.01;71.05;102701.06;5034711;28;20029;-80
2022/05/09 01:06:32;;;;;;;12.60;3.95;;;;;;;8.90;71.20;102697.50;5027406;28;20044;-80
2022/05/09 01:08:57;;;;;;;13.15;4.20;;;;;;;8.82;71.34;102693.06;5023926;28;20025;-80
2022/05/09 01:11:26;;;;;;;10.73;3.80;;;;;;;8.83;72.58;102695.69;5024615;28;20364;-80
2022/05/09 01:14:00;;;;;;;12.48;4.00;;;;;;;8.76;71.68;102693.00;5027526;28;20292;-80
2022/05/09 01:16:25;;;;;;;15.33;4.10;;;;;;;8.70;72.47;102683.44;5028745;28;20049;-80
2022/05/09 01:18:52;;;;;;;11.60;4.30;;;;;;;8.66;72.73;102686.84;5026525;28;20189;-80
2022/05/09 01:21:39;;;;;;;10.98;4.30;;;;;;;8.59;71.68;102687.59;5028104;28;20047;-80
2022/05/09 01:24:13;;;;;;;16.05;4.40;;;;;;;8.51;72.74;102679.75;5034479;28;20029;-80
2022/05/09 01:26:38;;;;;;;10.43;4.18;;;;;;;8.45;72.45;102677.06;5026414;28;20029;-80
2022/05/09 01:29:12;;;;;;;13.75;4.57;;;;;;;8.44;73.71;102683.09;5022807;28;20056;-80
2022/05/09 01:31:39;;;;;;;12.63;4.13;;;;;;;8.41;73.36;102683.03;5038046;28;20036;-80
2022/05/09 01:34:09;;;;;;;11.55;3.95;;;;;;;8.36;73.85;102676.94;5024817;28;20060;-80
2022/05/09 01:36:36;;;;;;;11.73;4.55;;;;;;;8.33;73.85;102679.44;5026710;28;20013;-81
2022/05/09 01:39:08;;;;;;;13.65;4.43;;;;;;;8.26;73.74;102675.88;5027394;28;20030;-81
2022/05/09 01:41:38;;;;;;;15.38;4.28;;;;;;;8.21;74.28;102679.25;5028001;28;20344;-80
2022/05/09 01:44:03;;;;;;;12.23;4.28;;;;;;;8.22;74.28;102675.81;5029145;28;20094;-80
2022/05/09 01:46:30;;;;;;;12.55;4.22;;;;;;;8.16;74.06;102676.59;5033752;28;20116;-80
2022/05/09 01:51:43;;;;;;;13.60;4.13;;;;;;;8.08;74.40;102683.34;5026986;28;20057;-78
2022/05/09 01:54:08;;;;;;;15.48;4.35;;;;;;;8.06;74.91;102685.03;5021759;28;20082;-80
2022/05/09 01:56:37;;;;;;;14.43;4.18;;;;;;;8.02;74.50;102672.91;5032706;28;20053;-80
2022/05/09 01:59:06;;;;;;;13.13;4.28;;;;;;;7.98;74.78;102686.63;5042262;28;20083;-80
2022/05/09 02:01:46;;;;;;;13.77;4.05;;;;;;;7.93;75.27;102683.97;5033481;28;20612;-80
2022/05/09 02:04:11;;;;;;;10.75;4.28;;;;;;;7.88;75.47;102679.56;5017796;28;20025;-80
2022/05/09 02:06:38;;;;;;;13.85;4.15;;;;;;;7.86;75.83;102681.25;5032636;28;20029;-80
2022/05/09 02:09:03;;;;;;;12.38;4.13;;;;;;;7.84;76.09;102681.25;5024870;28;20032;-80
2022/05/09 02:11:29;;;;;;;17.10;4.35;;;;;;;7.79;75.51;102681.97;5038890;28;20029;-80
2022/05/09 02:13:54;;;;;;;11.35;4.38;;;;;;;7.76;76.10;102675.06;5042526;28;20029;-80
2022/05/09 02:16:19;;;;;;;12.23;4.07;;;;;;;7.74;76.09;102679.31;5018240;28;20029;-80
2022/05/09 02:18:45;;;;;;;12.48;4.32;;;;;;;7.72;76.26;102678.44;5026164;28;20790;-80
2022/05/09 02:21:10;;;;;;;12.02;4.20;;;;;;;7.67;76.46;102669.75;5027764;28;20108;-80
2022/05/09 02:23:35;;;;;;;13.00;4.23;;;;;;;7.65;76.30;102674.00;5025145;28;20021;-80
2022/05/09 02:26:01;;;;;;;14.95;4.65;;;;;;;7.61;76.88;102674.78;5031142;28;20302;-80
2022/05/09 02:28:27;;;;;;;15.90;4.38;;;;;;;7.61;77.30;102671.34;5025689;28;20022;-80
2022/05/09 02:30:52;;;;;;;15.02;4.95;;;;;;;7.56;76.71;102676.44;5026656;28;20061;-80
2022/05/09 02:33:17;;;;;;;13.63;4.17;;;;;;;7.51;77.14;102675.47;5044752;28;20021;-80
2022/05/09 02:35:44;;;;;;;11.32;4.38;;;;;;;7.49;77.12;102672.00;5038960;28;20318;-80
2022/05/09 02:38:10;;;;;;;14.85;4.28;;;;;;;7.46;77.01;102664.19;5017342;28;20124;-80
2022/05/09 02:40:36;;;;;;;16.38;4.40;;;;;;;7.44;77.65;102673.59;5030383;28;20087;-80
2022/05/09 02:43:01;;;;;;;13.50;4.50;;;;;;;7.38;77.19;102674.38;5029150;28;20021;-80
2022/05/09 02:45:27;;;;;;;11.93;4.55;;;;;;;7.35;77.69;102669.16;5036605;28;20376;-80
2022/05/09 02:47:53;;;;;;;10.43;4.28;;;;;;;7.32;77.50;102663.94;5030058;28;20029;-80
2022/05/09 02:50:23;;;;;;;13.77;4.18;;;;;;;7.27;77.66;102662.13;5029267;28;20017;-80
2022/05/09 02:52:50;;;;;;;16.58;4.75;;;;;;;7.23;78.09;102663.78;5027953;28;20068;-80
2022/05/09 02:55:16;;;;;;;13.00;4.50;;;;;;;7.21;78.38;102662.00;5030950;28;20187;-80
2022/05/09 02:57:42;;;;;;;13.88;4.90;;;;;;;7.17;77.99;102657.59;5030008;28;20173;-80
2022/05/09 03:00:14;;;;;;;13.02;4.68;;;;;;;7.14;78.72;102667.03;5028898;28;20373;-80
2022/05/09 03:02:39;;;;;;;14.27;4.65;;;;;;;7.13;78.83;102667.88;5030114;28;20090;-80
2022/05/09 03:05:07;;;;;;;12.00;4.43;;;;;;;7.10;78.79;102662.66;5032018;28;20827;-80
2022/05/09 03:07:32;;;;;;;14.20;4.38;;;;;;;7.10;78.95;102662.66;5033171;28;20025;-80
2022/05/09 03:09:58;;;;;;;13.23;4.45;;;;;;;7.07;79.15;102654.00;5036992;28;20040;-80
2022/05/09 03:12:23;;;;;;;12.27;4.75;;;;;;;7.05;79.28;102651.38;5028808;28;20021;-80
2022/05/09 03:14:49;;;;;;;16.57;4.80;;;;;;;7.04;79.50;102647.06;5030471;28;20068;-80
2022/05/09 03:17:15;;;;;;;13.68;4.40;;;;;;;7.01;79.08;102659.03;5031167;28;20602;-80
2022/05/09 03:19:41;;;;;;;13.90;4.10;;;;;;;6.98;79.39;102652.09;5046495;28;20406;-80
2022/05/09 03:22:07;;;;;;;18.75;5.30;;;;;;;6.97;79.30;102655.50;5040564;28;20075;-80
2022/05/09 03:24:33;;;;;;;13.50;4.45;;;;;;;6.91;79.24;102641.63;5033957;28;20034;-80
2022/05/09 03:27:06;;;;;;;13.75;4.40;;;;;;;6.90;79.33;102645.91;5030607;28;20036;-80
2022/05/09 03:29:32;;;;;;;12.82;4.25;;;;;;;6.87;79.76;102651.03;5029518;28;20148;-80
2022/05/09 03:31:57;;;;;;;13.52;4.65;;;;;;;6.83;79.49;102649.19;5030535;28;20061;-80
2022/05/09 03:34:22;;;;;;;12.63;4.57;;;;;;;6.82;79.38;102644.03;5030593;28;20333;-80
2022/05/09 03:36:48;;;;;;;13.55;4.63;;;;;;;6.79;79.86;102642.25;5037334;28;20033;-80
2022/05/09 03:39:13;;;;;;;11.90;4.43;;;;;;;6.74;80.05;102636.16;5027110;28;20049;-80
2022/05/09 03:41:39;;;;;;;16.67;4.72;;;;;;;6.72;80.09;102636.09;5031247;28;20029;-80
2022/05/09 03:44:05;;;;;;;16.33;4.70;;;;;;;6.71;80.01;102641.22;5030525;28;20037;-80
2022/05/09 03:46:32;;;;;;;21.15;4.65;;;;;;;6.68;80.09;102642.03;5028782;28;20120;-80
2022/05/09 03:48:59;;;;;;;28.20;5.80;;;;;;;6.65;80.27;102641.09;5029579;28;20033;-80
2022/05/09 03:51:25;;;;;;;37.17;5.50;;;;;;;6.63;80.31;102646.22;5040429;28;20104;-80
2022/05/09 03:53:50;;;;;;;34.47;5.90;;;;;;;6.62;80.51;102643.59;5025929;28;20116;-80
2022/05/09 03:56:15;;;;;;;26.27;5.38;;;;;;;6.60;80.68;102643.59;5028524;28;20045;-80
2022/05/09 03:58:41;;;;;;;23.25;4.93;;;;;;;6.59;80.36;102635.81;5033705;28;20124;-80
2022/05/09 04:01:08;;;;;;;18.38;5.28;;;;;;;6.59;80.47;102636.69;5030010;28;21003;-80
2022/05/09 04:03:34;;;;;;;17.08;4.97;;;;;;;6.58;80.77;102640.09;5028277;28;20029;-80
2022/05/09 04:05:59;;;;;;;24.75;5.18;;;;;;;6.56;80.71;102633.16;5034004;28;20043;-80
2022/05/09 04:08:24;;;;;;;15.80;5.30;;;;;;;6.56;81.14;102638.31;5044222;28;20025;-80
2022/05/09 04:10:53;;;;;;;12.77;4.80;;;;;;;6.59;80.73;102638.41;5037031;28;20771;-80
2022/05/09 04:13:18;;;;;;;17.15;4.65;;;;;;;6.57;80.51;102640.94;5027143;28;20086;-80
2022/05/09 04:18:41;;;;;;;11.88;4.65;;;;;;;6.56;81.07;102646.03;5042436;28;20154;-80
2022/05/09 04:21:08;;;;;;;11.63;4.80;;;;;;;6.54;81.23;102642.59;5034468;28;20364;-81
2022/05/09 04:23:34;;;;;;;15.52;5.32;;;;;;;6.57;81.52;102642.63;5039431;28;20028;-80
2022/05/09 04:26:00;;;;;;;17.33;5.40;;;;;;;6.58;81.57;102639.22;5031573;28;20029;-81
2022/05/09 04:28:26;;;;;;;18.00;5.03;;;;;;;6.60;81.60;102629.84;5028041;28;20025;-81
2022/05/09 04:30:51;;;;;;;13.25;4.93;;;;;;;6.60;81.45;102633.28;5030188;28;20399;-81
2022/05/09 04:33:17;;;;;;;11.73;5.32;;;;;;;6.67;81.94;102634.28;5029565;28;20546;-81
2022/05/09 04:35:43;;;;;;;16.10;5.18;;;;;;;6.70;81.40;102631.75;5036341;28;20086;-81
2022/05/09 04:38:22;;;;;;;14.88;5.53;;;;;;;6.72;81.86;102627.50;5033481;28;20041;-81
2022/05/09 04:40:51;;;;;;;17.58;6.13;;;;;;;6.78;82.41;102626.75;5028932;28;20037;-81
2022/05/09 04:43:23;;;;;;;20.20;5.93;;;;;;;6.82;82.43;102624.28;5028873;28;20061;-79
2022/05/09 04:45:49;;;;;;;16.48;5.05;;;;;;;6.86;82.08;102626.09;5020911;28;20510;-78
2022/05/09 04:48:17;;;;;;;18.40;5.28;;;;;;;6.91;82.48;102628.75;5029830;28;20030;-78
2022/05/09 04:50:42;;;;;;;15.85;5.53;;;;;;;6.95;82.36;102627.97;5020567;28;20056;-79
2022/05/09 04:53:08;;;;;;;19.65;5.78;;;;;;;7.00;82.58;102623.78;5023569;28;20404;-78
2022/05/09 04:55:33;;;;;;;19.05;5.80;;;;;;;7.04;81.71;102629.00;5025489;28;20155;-78
2022/05/09 04:57:59;;;;;;;16.65;5.90;;;;;;;7.08;81.88;102628.25;5027836;28;20140;-78
2022/05/09 05:00:26;;;;;;;19.75;6.18;;;;;;;7.13;82.44;102628.31;5028160;28;20025;-79
2022/05/09 05:02:52;;;;;;;21.52;6.90;;;;;;;7.23;82.96;102622.53;5022636;28;20040;-79
2022/05/09 05:05:18;;;;;;;25.17;6.75;;;;;;;7.30;80.77;102623.50;5029834;28;20021;-79
2022/05/09 05:07:43;;;;;;;22.38;6.45;;;;;;;7.39;82.40;102618.47;5031885;28;20037;-79
2022/05/09 05:10:10;;;;;;;21.60;6.68;;;;;;;7.47;82.57;102615.19;5021535;28;20438;-78
2022/05/09 05:12:36;;;;;;;23.48;7.28;;;;;;;7.54;82.04;102608.44;5023310;28;20045;-78
2022/05/09 05:15:02;;;;;;;18.13;6.90;;;;;;;7.63;81.56;102618.06;5020780;28;20222;-80
2022/05/09 05:17:28;;;;;;;25.13;7.90;;;;;;;7.69;80.74;102613.88;5033337;28;20021;-80
2022/05/09 05:19:53;;;;;;;19.15;7.00;;;;;;;7.83;81.62;102614.09;5025117;28;20033;-81
2022/05/09 05:22:19;;;;;;;19.77;7.53;;;;;;;8.01;81.30;102611.78;5029721;28;20059;-80
2022/05/09 05:24:45;;;;;;;17.45;7.53;;;;;;;8.20;80.55;102612.91;5028011;28;20029;-81
2022/05/09 05:27:12;;;;;;;20.75;7.43;;;;;;;8.29;80.02;102623.38;5030546;28;20021;-80
2022/05/09 05:29:38;;;;;;;16.50;6.70;;;;;;;8.30;78.21;102615.69;5026101;28;20360;-80
2022/05/09 05:32:36;;;;;;;24.90;7.60;;;;;;;8.45;78.96;102622.81;5025252;28;20029;-80
2022/05/09 05:35:06;;;;;;;18.33;6.82;;;;;;;8.72;79.71;102617.13;5023137;28;20495;-81
2022/05/09 05:37:33;;;;;;;17.48;6.30;;;;;;;9.15;76.31;102622.75;5028959;28;20039;-81
2022/05/09 05:40:00;;;;;;;23.13;7.57;;;;;;;9.50;76.76;102619.69;5028306;28;20029;-76
2022/05/09 05:42:26;;;;;;;22.77;6.82;;;;;;;9.74;76.31;102615.59;5033511;28;20049;-76
2022/05/09 05:44:51;;;;;;;17.25;6.38;;;;;;;9.97;75.98;102624.38;5027130;28;20068;-76
2022/05/09 05:47:20;;;;;;;16.25;6.80;;;;;;;10.14;74.36;102619.34;5028724;28;20030;-76
2022/05/09 05:49:45;;;;;;;19.88;7.65;;;;;;;10.33;72.01;102620.34;5034162;28;20426;-76
2022/05/09 05:52:11;;;;;;;21.60;6.57;;;;;;;10.54;73.53;102615.28;5026271;28;20488;-77
2022/05/09 05:54:40;;;;;;;17.17;6.85;;;;;;;10.77;72.29;102613.66;5026968;28;20037;-76
2022/05/09 05:57:07;;;;;;;16.48;6.40;;;;;;;10.98;73.87;102612.88;5027915;28;20132;-76
2022/05/09 05:59:33;;;;;;;16.50;6.50;;;;;;;11.11;74.15;102608.56;5031042;28;20042;-76
2022/05/09 06:01:59;;;;;;;24.73;7.25;;;;;;;11.18;69.71;102612.91;5028089;28;20031;-76
2022/05/09 06:04:25;;;;;;;19.63;7.13;;;;;;;11.20;68.64;102614.63;5022255;28;20029;-76
2022/05/09 06:06:50;;;;;;;21.45;7.30;;;;;;;11.43;68.84;102622.47;5030626;28;20090;-76
2022/05/09 06:09:16;;;;;;;19.42;7.10;;;;;;;11.69;69.74;102623.34;5030317;28;20068;-81
2022/05/09 06:11:42;;;;;;;20.17;7.00;;;;;;;11.84;69.47;102614.72;5044363;28;20033;-81
2022/05/09 06:14:10;;;;;;;21.92;7.30;;;;;;;11.80;68.35;102626.84;5032675;28;20040;-81
2022/05/09 06:16:37;;;;;;;25.08;7.85;;;;;;;11.75;68.85;102619.91;5034496;28;20561;-81
2022/05/09 06:19:04;;;;;;;21.25;6.95;;;;;;;11.69;70.20;102618.16;5030462;28;20057;-81
2022/05/09 06:21:33;;;;;;;19.05;7.43;;;;;;;11.68;71.52;102616.41;5031521;28;20036;-81
2022/05/09 06:23:59;;;;;;;21.75;8.25;;;;;;;11.73;68.19;102616.44;5031680;28;20508;-81
2022/05/09 06:26:25;;;;;;;19.63;7.82;;;;;;;11.83;71.24;102613.88;5032736;28;20134;-81
2022/05/09 06:28:51;;;;;;;24.80;8.02;;;;;;;11.85;69.28;102617.34;5030717;28;20039;-81
2022/05/09 06:31:17;;;;;;;21.27;7.18;;;;;;;11.84;65.10;102620.78;5028698;28;20034;-80
2022/05/09 06:33:43;;;;;;;21.30;7.25;;;;;;;11.76;67.19;102612.13;5030857;28;20135;-80
2022/05/09 06:36:08;;;;;;;23.52;7.60;;;;;;;11.75;66.73;102615.59;5030017;28;20079;-80
2022/05/09 06:38:34;;;;;;;23.40;7.75;;;;;;;11.76;67.10;102614.72;5033971;28;20071;-76
2022/05/09 06:41:00;;;;;;;22.83;7.85;;;;;;;11.78;70.35;102610.41;5031472;28;20105;-76
2022/05/09 06:43:26;;;;;;;25.65;7.78;;;;;;;11.84;67.59;102619.94;5033921;28;20013;-76
2022/05/09 06:45:52;;;;;;;20.98;8.32;;;;;;;12.02;67.46;102609.50;5032783;28;20045;-76
2022/05/09 06:48:17;;;;;;;19.98;8.35;;;;;;;12.47;65.89;102612.88;5034147;28;20044;-76
2022/05/09 06:50:43;;;;;;;21.92;8.48;;;;;;;13.43;66.85;102603.75;5035652;28;20539;-76
2022/05/09 06:53:10;;;;;;;21.33;7.90;;;;;;;14.13;62.59;102600.50;5031284;28;20408;-76
2022/05/09 06:55:35;;;;;;;21.25;8.23;;;;;;;14.49;63.24;102593.19;5028901;28;20030;-77
2022/05/09 06:58:08;;;;;;;26.63;8.35;;;;;;;15.05;60.45;102607.25;5029817;28;20043;-77
2022/05/09 07:00:34;;;;;;;24.33;8.02;;;;;;;15.94;57.37;102600.63;5029149;28;20025;-77
2022/05/09 07:03:00;;;;;;;25.70;8.27;;;;;;;16.53;59.07;102596.84;5022607;28;20203;-77
2022/05/09 07:05:26;;;;;;;22.05;8.32;;;;;;;16.85;51.08;102601.47;5037234;28;20105;-77
2022/05/09 07:07:51;;;;;;;20.38;8.20;;;;;;;17.19;53.60;102598.09;5024378;28;20025;-77
2022/05/09 07:10:18;;;;;;;25.20;8.35;;;;;;;17.47;55.62;102604.38;5019309;28;20045;-77
2022/05/09 07:12:48;;;;;;;20.50;8.18;;;;;;;17.62;53.98;102592.69;5019460;28;20029;-77
2022/05/09 07:15:20;;;;;;;19.48;8.20;;;;;;;17.88;53.81;102589.44;5032775;28;20037;-77
2022/05/09 07:17:47;;;;;;;22.23;8.00;;;;;;;18.23;52.36;102591.94;5034087;28;20056;-77
2022/05/09 07:20:13;;;;;;;21.55;8.30;;;;;;;18.54;48.92;102589.31;5031638;28;20017;-77
2022/05/09 07:22:38;;;;;;;19.73;7.95;;;;;;;18.89;52.20;102585.69;5031413;28;20575;-77
2022/05/09 07:25:04;;;;;;;20.88;8.30;;;;;;;19.03;45.16;102590.53;5031579;28;20091;-77
2022/05/09 07:27:30;;;;;;;18.92;7.95;;;;;;;18.88;48.28;102583.97;5029808;28;20086;-77
2022/05/09 07:29:56;;;;;;;17.45;7.70;;;;;;;18.85;47.57;102586.66;5031538;28;20033;-77
2022/05/09 07:32:22;;;;;;;19.80;7.95;;;;;;;19.10;47.59;102589.44;5030597;28;20033;-77
2022/05/09 07:34:49;;;;;;;17.67;8.23;;;;;;;19.81;42.92;102589.72;5031818;28;20025;-77
2022/05/09 07:37:15;;;;;;;20.75;8.63;;;;;;;20.53;40.73;102592.44;5026411;28;20053;-77
2022/05/09 07:39:40;;;;;;;18.52;8.30;;;;;;;20.87;40.98;102584.97;5030033;28;20037;-86
2022/05/09 07:42:06;;;;;;;17.88;8.27;;;;;;;21.19;39.69;102581.94;5031258;28;20030;-86
2022/05/09 07:44:32;;;;;;;26.33;8.90;;;;;;;21.57;40.63;102580.34;5029914;28;20049;-86
2022/05/09 07:46:57;;;;;;;19.83;8.20;;;;;;;22.33;39.15;102574.41;5030743;28;20495;-86
2022/05/09 07:49:23;;;;;;;19.33;8.18;;;;;;;23.16;37.56;102574.91;5031256;28;20420;-85
2022/05/09 07:51:48;;;;;;;19.48;8.23;;;;;;;23.83;36.77;102576.84;5031527;28;20029;-86
2022/05/09 07:54:14;;;;;;;20.57;8.30;;;;;;;24.40;35.28;102575.59;5031284;28;20022;-86
2022/05/09 07:56:40;;;;;;;21.80;8.52;;;;;;;24.86;34.60;102583.66;5031359;28;20051;-86
2022/05/09 07:59:06;;;;;;;18.92;8.00;;;;;;;25.31;33.55;102580.22;5029961;28;20032;-86
2022/05/09 08:01:31;;;;;;;22.37;8.87;;;;;;;25.51;32.13;102579.94;5029252;28;20037;-86
2022/05/09 08:03:58;;;;;;;18.43;7.57;;;;;;;25.94;32.80;102582.69;5029511;28;20283;-83
2022/05/09 08:06:24;;;;;;;19.00;7.53;;;;;;;26.17;33.31;102583.94;5031241;28;20029;-83
2022/05/09 08:08:50;;;;;;;16.45;7.57;;;;;;;26.41;32.43;102576.28;5031110;28;20091;-78
2022/05/09 08:11:17;;;;;;;15.55;7.93;;;;;;;26.45;30.19;102578.66;5030786;28;20460;-78
2022/05/09 08:13:43;;;;;;;17.60;8.00;;;;;;;26.16;31.67;102579.56;5029363;28;20079;-78
2022/05/09 08:16:09;;;;;;;16.95;7.70;;;;;;;26.11;32.11;102582.53;5029240;28;20025;-78
2022/05/09 08:18:34;;;;;;;15.18;7.78;;;;;;;26.19;32.60;102568.75;5028739;28;20033;-77
2022/05/09 08:21:00;;;;;;;17.35;8.15;;;;;;;26.29;31.65;102578.75;5030599;28;20025;-77
2022/05/09 08:23:26;;;;;;;17.77;7.47;;;;;;;26.39;32.48;102578.19;5030773;28;20055;-77
2022/05/09 08:25:53;;;;;;;18.38;8.13;;;;;;;26.26;31.79;102568.31;5030745;28;20101;-77
2022/05/09 08:28:19;;;;;;;17.67;8.02;;;;;;;25.88;31.85;102577.75;5029514;28;20026;-77
2022/05/09 08:30:44;;;;;;;18.38;7.97;;;;;;;25.37;33.86;102577.22;5030750;28;20025;-77
2022/05/09 08:33:18;;;;;;;18.13;8.40;;;;;;;24.98;33.08;102588.31;5029562;28;20040;-77
2022/05/09 08:35:44;;;;;;;;;;;;;;;25.18;35.85;102584.50;5030909;28;20515;-77
2022/05/09 08:38:10;;;;;;;19.77;8.18;;;;;;;24.51;34.30;102579.44;5045447;28;19916;-77
2022/05/09 08:40:39;;;;;;;20.58;8.05;;;;;;;24.17;35.35;102578.56;5030482;28;20040;-77
2022/05/09 08:43:29;;;;;;;18.77;8.60;;;;;;;24.13;36.29;102571.75;5030042;28;20060;-77
2022/05/09 08:46:17;;;;;;;20.23;8.65;;;;;;;24.15;37.29;102579.63;5029386;28;20112;-77
2022/05/09 08:49:10;;;;;;;17.65;7.32;;;;;;;24.18;37.53;102580.28;5045176;28;20034;-84
2022/05/09 08:51:56;;;;;;;21.42;8.40;;;;;;;24.11;37.38;102580.69;5030492;28;20026;-84
2022/05/09 08:54:23;;;;;;;22.17;8.48;;;;;;;24.03;36.05;102575.78;5029461;28;20041;-84
2022/05/09 08:56:55;;;;;;;17.90;7.93;;;;;;;23.60;33.07;102570.09;5029875;28;20046;-84
2022/05/09 08:59:28;;;;;;;17.73;7.78;;;;;;;23.30;36.58;102574.22;5029888;28;20067;-84
2022/05/09 09:02:10;;;;;;;16.63;7.55;;;;;;;23.20;37.18;102571.16;5011153;28;20218;-84
2022/05/09 09:04:36;;;;;;;18.27;7.68;;;;;;;23.19;36.42;102569.47;5023564;28;20022;-84
2022/05/09 09:07:10;;;;;;;15.00;7.85;;;;;;;23.05;35.30;102565.78;5034878;28;20468;-85
2022/05/09 09:09:53;;;;;;;20.42;8.13;;;;;;;22.88;36.60;102571.88;5030263;28;20030;-84
2022/05/09 09:12:51;;;;;;;19.23;8.32;;;;;;;22.82;35.77;102570.38;5029483;28;20022;-84
2022/05/09 09:15:53;;;;;;;20.95;8.30;;;;;;;22.83;36.74;102556.22;5028604;28;20037;-84
2022/05/09 09:18:36;;;;;;;17.17;8.25;;;;;;;22.94;36.13;102553.06;5027491;28;20231;-84
2022/05/09 09:21:13;;;;;;;19.17;8.60;;;;;;;22.97;35.51;102549.44;5030134;28;20072;-84
2022/05/09 09:24:18;;;;;;;21.63;8.27;;;;;;;23.20;36.81;102552.66;5016083;28;20327;-83
2022/05/09 09:27:16;;;;;;;18.85;8.52;;;;;;;23.20;36.05;102552.66;5029252;28;20048;-84
2022/05/09 09:29:49;;;;;;;16.02;7.97;;;;;;;23.19;35.47;102555.38;5029687;28;20115;-85
2022/05/09 09:32:20;;;;;;;19.30;8.60;;;;;;;23.05;33.66;102550.78;5043641;28;20045;-84
2022/05/09 09:34:48;;;;;;;20.70;9.23;;;;;;;22.63;34.49;102551.00;5028006;28;20105;-84
2022/05/09 09:37:31;;;;;;;17.42;7.80;;;;;;;22.87;36.30;102549.00;5028985;28;20033;-84
2022/05/09 09:39:57;;;;;;;19.60;7.93;;;;;;;23.03;35.60;102541.19;5029353;28;20113;-84
2022/05/09 09:42:22;;;;;;;19.07;8.70;;;;;;;22.93;33.07;102548.69;5022623;28;20037;-83
2022/05/09 09:44:49;;;;;;;16.13;8.10;;;;;;;22.96;34.04;102547.72;5028627;28;20675;-83
2022/05/09 09:47:22;;;;;;;18.95;8.15;;;;;;;22.97;35.49;102547.63;5028568;28;20025;-84
2022/05/09 09:50:08;;;;;;;22.48;9.00;;;;;;;22.93;33.91;102545.22;5028105;28;20029;-84
2022/05/09 09:52:55;;;;;;;16.45;8.75;;;;;;;22.73;34.93;102547.00;5028878;28;20060;-84
2022/05/09 09:55:28;;;;;;;15.43;8.75;;;;;;;22.52;34.96;102534.78;5029275;28;20474;-83
2022/05/09 09:57:55;;;;;;;21.50;9.00;;;;;;;22.42;35.11;102531.72;5028987;28;20141;-83
2022/05/09 10:00:23;;;;;;;18.60;9.07;;;;;;;22.45;35.87;102533.34;5029205;28;20442;-84
2022/05/09 10:02:51;;;;;;;17.05;8.95;;;;;;;22.42;35.76;102529.06;5028292;28;20025;-84
2022/05/09 10:05:20;;;;;;;20.65;9.00;;;;;;;22.56;35.61;102533.72;5027620;28;20502;-83
2022/05/09 10:07:47;;;;;;;17.38;9.02;;;;;;;22.55;36.13;102524.06;5028888;28;20025;-84
2022/05/09 10:10:23;;;;;;;21.17;8.98;;;;;;;22.54;35.69;102518.84;5029104;28;20420;-84
2022/05/09 10:12:51;;;;;;;22.63;9.85;;;;;;;22.30;35.10;102518.22;5028969;28;20032;-84
2022/05/09 10:15:35;;;;;;;17.10;9.93;;;;;;;22.25;35.81;102518.41;5026622;28;20033;-84
2022/05/09 10:18:23;;;;;;;17.55;9.23;;;;;;;22.30;36.88;102507.66;5028956;28;20018;-84
2022/05/09 10:20:51;;;;;;;18.67;9.40;;;;;;;22.18;35.21;102510.81;5029203;28;20025;-83
2022/05/09 10:26:21;;;;;;;17.55;8.73;;;;;;;22.16;37.13;102500.34;5029033;28;20087;-84
2022/05/09 10:28:50;;;;;;;20.13;9.07;;;;;;;22.22;36.01;102496.56;5028802;28;20080;-84
2022/05/09 10:31:21;;;;;;;17.88;7.50;;;;;;;22.42;35.50;102496.50;5027890;28;20034;-83
2022/05/09 10:34:05;;;;;;;13.90;5.78;;;;;;;22.67;35.89;102494.41;5028519;28;20044;-84
2022/05/09 10:36:39;;;;;;;12.88;5.63;;;;;;;22.95;34.48;102483.38;5028816;28;20025;-84
2022/05/09 10:39:16;;;;;;;;;;;;;;;23.21;35.39;102492.66;5029310;28;20025;-83
2022/05/09 10:42:11;;;;;;;15.43;6.70;;;;;;;23.25;34.76;102483.63;5026376;28;19909;-84
2022/05/09 10:44:52;;;;;;;12.70;6.60;;;;;;;23.29;35.14;102486.97;5027689;28;20042;-84
2022/05/09 10:47:42;;;;;;;14.77;7.43;;;;;;;23.11;33.75;102484.34;5017258;28;20034;-83
2022/05/09 10:50:15;;;;;;;16.45;6.88;;;;;;;22.84;35.02;102483.91;5028646;28;20396;-84
2022/05/09 10:53:08;;;;;;;18.00;8.60;;;;;;;22.88;35.38;102491.69;5029026;28;20025;-84
2022/05/09 10:55:46;;;;;;;17.63;8.80;;;;;;;22.63;34.96;102486.69;5032786;28;20120;-84
2022/05/09 10:58:29;;;;;;;16.60;9.00;;;;;;;22.30;35.45;102479.44;5031819;28;20445;-84
2022/05/09 11:01:11;;;;;;;17.15;8.70;;;;;;;22.14;36.31;102478.44;5032073;28;20021;-84
2022/05/09 11:03:39;;;;;;;17.00;8.40;;;;;;;22.08;35.74;102469.94;5019212;28;20495;-84
2022/05/09 11:06:16;;;;;;;18.85;7.75;;;;;;;22.21;37.41;102469.28;5040088;28;20036;-83
2022/05/09 11:08:59;;;;;;;11.95;6.38;;;;;;;22.37;35.78;102472.94;5031914;28;20036;-84
2022/05/09 11:11:34;;;;;;;15.60;6.38;;;;;;;22.55;36.33;102463.28;5031966;28;20025;-84
2022/05/09 11:14:27;;;;;;;13.10;6.65;;;;;;;22.75;34.45;102455.25;5030516;28;20501;-84
2022/05/09 11:16:59;;;;;;;13.32;6.88;;;;;;;22.76;34.65;102461.41;5023304;28;20033;-84
2022/05/09 11:19:38;;;;;;;14.15;6.95;;;;;;;22.80;34.91;102450.59;5031795;28;20037;-77
2022/05/09 11:22:20;;;;;;;16.50;6.53;;;;;;;23.00;34.90;102454.03;5046761;28;20024;-77
2022/05/09 11:24:52;;;;;;;12.23;6.45;;;;;;;22.94;35.25;102446.41;5031804;28;20048;-77
2022/05/09 11:27:36;;;;;;;14.18;7.40;;;;;;;22.95;34.06;102456.06;5031597;28;20025;-77
2022/05/09 11:30:08;;;;;;;13.30;6.82;;;;;;;22.87;34.00;102440.56;5032022;28;20021;-77
2022/05/09 11:32:38;;;;;;;18.02;7.68;;;;;;;22.81;35.98;102446.16;5044860;28;20542;-76
2022/05/09 11:35:33;;;;;;;17.00;7.25;;;;;;;22.94;35.52;102435.81;5031983;28;20055;-77
2022/05/09 11:38:30;;;;;;;14.25;7.35;;;;;;;23.07;35.25;102431.63;5031353;28;20120;-76
2022/05/09 11:41:08;;;;;;;14.25;7.32;;;;;;;23.11;35.93;102433.19;5031335;28;20128;-76